createdAt,value
2018-06-20T00:01:08.192Z,19.50
2018-06-20T00:03:40.977Z,19.50
2018-06-20T00:06:13.453Z,19.50
2018-06-20T00:08:48.177Z,19.50
2018-06-20T00:11:22.223Z,19.60
2018-06-20T00:13:55.828Z,19.60
2018-06-20T00:16:28.269Z,19.70
2018-06-20T00:19:00.797Z,19.60
2018-06-20T00:21:33.203Z,19.50
2018-06-20T00:24:05.607Z,19.30
2018-06-20T00:26:38.948Z,19.20
2018-06-20T00:29:13.470Z,19.10
2018-06-20T00:31:46.011Z,19.00
2018-06-20T00:37:39.636Z,19.00
2018-06-20T00:40:12.929Z,19.00
2018-06-20T00:42:49.701Z,18.90
2018-06-20T00:45:24.597Z,18.80
2018-06-20T00:47:57.035Z,18.80
2018-06-20T00:50:29.489Z,18.80
2018-06-20T00:53:01.708Z,18.80
2018-06-20T00:55:43.456Z,18.70
2018-06-20T00:58:15.830Z,18.70
2018-06-20T01:00:48.269Z,18.70
2018-06-20T01:03:20.873Z,18.70
2018-06-20T01:05:54.096Z,18.80
2018-06-20T01:08:27.234Z,18.80
2018-06-20T01:11:00.231Z,18.70
2018-06-20T01:13:32.414Z,18.70
2018-06-20T01:16:04.868Z,18.70
2018-06-20T01:18:37.339Z,18.70
2018-06-20T01:21:15.055Z,18.70
2018-06-20T01:23:51.490Z,18.70
2018-06-20T01:26:27.261Z,18.70
2018-06-20T01:29:02.749Z,18.80
2018-06-20T01:31:42.870Z,18.70
2018-06-20T01:34:26.251Z,18.70
2018-06-20T01:39:29.616Z,18.70
2018-06-20T01:42:01.862Z,18.70
2018-06-20T01:44:34.095Z,18.60
2018-06-20T01:47:06.316Z,18.60
2018-06-20T01:49:38.712Z,18.60
2018-06-20T01:52:11.218Z,18.70
2018-06-20T01:54:43.525Z,18.60
2018-06-20T01:57:15.704Z,18.70
2018-06-20T01:59:48.625Z,18.70
2018-06-20T02:02:20.849Z,18.80
2018-06-20T02:04:53.081Z,18.80
2018-06-20T02:07:25.196Z,18.80
2018-06-20T02:09:58.487Z,18.80
2018-06-20T02:12:30.847Z,18.80
2018-06-20T02:15:14.536Z,18.70
2018-06-20T02:17:46.847Z,18.70
2018-06-20T02:20:22.848Z,18.70
2018-06-20T02:22:58.002Z,18.70
2018-06-20T02:25:39.699Z,18.70
2018-06-20T02:28:23.194Z,18.80
2018-06-20T02:30:55.509Z,18.80
2018-06-20T02:33:40.279Z,18.70
2018-06-20T02:36:20.198Z,18.70
2018-06-20T02:38:54.869Z,18.60
2018-06-20T02:41:29.420Z,18.50
2018-06-20T02:44:03.270Z,18.50
2018-06-20T02:46:36.051Z,18.50
2018-06-20T02:49:08.357Z,18.50
2018-06-20T02:51:41.113Z,18.50
2018-06-20T02:54:14.237Z,18.50
2018-06-20T02:56:46.497Z,18.50
2018-06-20T02:59:18.585Z,18.50
2018-06-20T03:01:50.917Z,18.40
2018-06-20T03:04:23.375Z,18.40
2018-06-20T03:06:56.029Z,18.30
2018-06-20T03:09:32.079Z,18.30
2018-06-20T03:12:04.420Z,18.40
2018-06-20T03:14:36.639Z,18.40
2018-06-20T03:20:30.089Z,18.30
2018-06-20T03:23:02.461Z,18.30
2018-06-20T03:25:44.590Z,18.20
2018-06-20T03:28:22.567Z,18.20
2018-06-20T03:30:58.474Z,18.20
2018-06-20T03:33:44.401Z,18.20
2018-06-20T03:36:27.711Z,18.10
2018-06-20T03:39:03.872Z,18.10
2018-06-20T03:41:39.582Z,18.10
2018-06-20T03:44:13.875Z,18.10
2018-06-20T03:46:50.224Z,18.10
2018-06-20T03:49:46.516Z,18.10
2018-06-20T03:52:18.904Z,18.20
2018-06-20T03:54:51.759Z,18.10
2018-06-20T03:57:23.804Z,18.20
2018-06-20T03:59:58.973Z,18.10
2018-06-20T04:02:33.676Z,18.10
2018-06-20T04:05:05.835Z,18.10
2018-06-20T04:07:38.035Z,18.20
2018-06-20T04:10:10.224Z,18.10
2018-06-20T04:12:43.478Z,18.20
2018-06-20T04:15:15.745Z,18.20
2018-06-20T04:17:47.833Z,18.20
2018-06-20T04:20:20.333Z,18.30
2018-06-20T04:22:53.299Z,18.30
2018-06-20T04:25:25.518Z,18.30
2018-06-20T04:27:57.648Z,18.30
2018-06-20T04:30:29.903Z,18.40
2018-06-20T04:33:02.014Z,18.30
2018-06-20T04:35:34.216Z,18.30
2018-06-20T04:38:06.541Z,18.20
2018-06-20T04:40:39.012Z,18.20
2018-06-20T04:43:11.124Z,18.20
2018-06-20T04:45:43.662Z,18.20
2018-06-20T04:48:17.458Z,18.20
2018-06-20T04:50:50.614Z,18.10
2018-06-20T04:53:22.712Z,18.10
2018-06-20T04:55:54.877Z,18.10
2018-06-20T04:58:27.100Z,18.00
2018-06-20T05:00:59.433Z,18.00
2018-06-20T05:03:33.313Z,18.00
2018-06-20T05:06:05.522Z,18.00
2018-06-20T05:08:37.749Z,18.00
2018-06-20T05:11:17.200Z,17.90
2018-06-20T05:13:49.287Z,17.90
2018-06-20T05:16:21.438Z,17.80
2018-06-20T05:18:53.614Z,17.80
2018-06-20T05:21:26.865Z,17.90
2018-06-20T05:23:59.785Z,17.90
2018-06-20T05:26:32.041Z,17.80
2018-06-20T05:29:04.197Z,17.80
2018-06-20T05:31:36.294Z,17.90
2018-06-20T05:34:08.533Z,17.80
2018-06-20T05:36:40.732Z,17.90
2018-06-20T05:39:13.664Z,17.90
2018-06-20T05:41:45.867Z,17.80
2018-06-20T05:44:18.085Z,17.80
2018-06-20T05:46:50.205Z,17.80
2018-06-20T05:49:22.408Z,17.80
2018-06-20T05:51:54.513Z,17.80
2018-06-20T05:54:26.664Z,17.70
2018-06-20T05:56:58.817Z,17.70
2018-06-20T05:59:31.087Z,17.70
2018-06-20T06:02:03.245Z,17.80
2018-06-20T06:04:35.488Z,17.80
2018-06-20T06:07:07.695Z,17.90
2018-06-20T06:09:39.940Z,17.90
2018-06-20T06:12:12.041Z,17.80
2018-06-20T06:14:44.174Z,17.80
2018-06-20T06:17:16.296Z,17.80
2018-06-20T06:19:48.463Z,17.80
2018-06-20T06:22:20.966Z,17.90
2018-06-20T06:24:53.160Z,17.90
2018-06-20T06:27:25.680Z,17.90
2018-06-20T06:29:57.840Z,17.90
2018-06-20T06:32:30.068Z,17.80
2018-06-20T06:41:54.646Z,17.60
2018-06-20T06:44:27.119Z,17.60
2018-06-20T06:46:59.550Z,17.60
2018-06-20T06:49:31.966Z,17.60
2018-06-20T06:52:05.781Z,17.60
2018-06-20T06:54:38.166Z,17.60
2018-06-20T06:57:10.634Z,17.50
2018-06-20T06:59:43.155Z,17.50
2018-06-20T07:04:47.556Z,17.60
2018-06-20T07:07:46.053Z,17.50
2018-06-20T07:10:18.240Z,17.60
2018-06-20T07:12:50.497Z,17.60
2018-06-20T07:15:22.694Z,17.60
2018-06-20T07:17:54.957Z,17.50
2018-06-20T07:21:04.088Z,17.50
2018-06-20T07:23:36.723Z,17.50
2018-06-20T07:26:09.007Z,17.50
2018-06-20T07:28:41.379Z,17.40
2018-06-20T07:31:13.780Z,17.40
2018-06-20T07:36:17.293Z,17.50
2018-06-20T07:38:49.631Z,17.50
2018-06-20T07:41:21.937Z,17.50
2018-06-20T07:43:54.382Z,17.50
2018-06-20T07:46:26.844Z,17.50
2018-06-20T07:49:27.606Z,17.40
2018-06-20T07:51:59.854Z,17.40
2018-06-20T07:54:32.392Z,17.40
2018-06-20T07:57:04.662Z,17.30
2018-06-20T07:59:41.372Z,17.30
2018-06-20T08:02:27.597Z,17.30
2018-06-20T08:05:04.324Z,17.30
2018-06-20T08:07:40.965Z,17.20
2018-06-20T08:10:17.705Z,17.20
2018-06-20T08:12:54.385Z,17.20
2018-06-20T08:15:31.029Z,17.20
2018-06-20T08:18:07.565Z,17.20
2018-06-20T08:24:00.707Z,17.10
2018-06-20T08:26:32.846Z,17.10
2018-06-20T08:29:05.169Z,17.10
2018-06-20T08:31:37.521Z,17.10
2018-06-20T08:34:09.794Z,17.10
2018-06-20T08:36:42.387Z,17.10
2018-06-20T08:39:14.736Z,17.10
2018-06-20T08:44:54.066Z,17.20
2018-06-20T08:47:26.709Z,17.10
2018-06-20T08:49:59.176Z,17.10
2018-06-20T08:52:31.600Z,17.10
2018-06-20T08:55:04.291Z,17.10
2018-06-20T08:57:36.822Z,17.10
2018-06-20T09:00:09.633Z,17.20
2018-06-20T09:02:42.049Z,17.20
2018-06-20T09:05:18.956Z,17.30
2018-06-20T09:08:28.302Z,17.30
2018-06-20T09:11:04.891Z,17.30
2018-06-20T09:14:13.438Z,17.20
2018-06-20T09:16:50.107Z,17.30
2018-06-20T09:19:26.747Z,17.30
2018-06-20T09:21:59.351Z,17.20
2018-06-20T09:24:31.928Z,17.20
2018-06-20T09:27:04.338Z,17.20
2018-06-20T09:29:36.803Z,17.20
2018-06-20T09:32:09.379Z,17.20
2018-06-20T09:34:41.864Z,17.20
2018-06-20T09:37:14.320Z,17.20
2018-06-20T09:39:46.739Z,17.20
2018-06-20T09:42:19.288Z,17.20
2018-06-20T09:44:51.719Z,17.30
2018-06-20T09:47:24.131Z,17.20
2018-06-20T09:49:56.940Z,17.30
2018-06-20T09:52:29.330Z,17.30
2018-06-20T09:55:01.783Z,17.30
2018-06-20T09:57:34.228Z,17.30
2018-06-20T10:00:11.520Z,17.30
2018-06-20T10:05:24.198Z,17.40
2018-06-20T10:08:01.010Z,17.40
2018-06-20T10:10:37.708Z,17.40
2018-06-20T10:13:13.516Z,17.40
2018-06-20T10:15:46.209Z,17.40
2018-06-20T10:18:18.699Z,17.40
2018-06-20T10:20:51.015Z,17.50
2018-06-20T10:23:23.633Z,17.40
2018-06-20T10:25:55.890Z,17.50
2018-06-20T10:28:28.621Z,17.50
2018-06-20T10:31:01.045Z,17.50
2018-06-20T10:33:33.661Z,17.50
2018-06-20T10:36:06.071Z,17.50
2018-06-20T10:38:38.633Z,17.60
2018-06-20T10:41:10.905Z,17.60
2018-06-20T10:43:43.419Z,17.50
2018-06-20T10:46:20.342Z,17.50
2018-06-20T10:48:52.693Z,17.50
2018-06-20T10:51:25.103Z,17.50
2018-06-20T10:54:01.534Z,17.50
2018-06-20T10:56:38.420Z,17.50
2018-06-20T10:59:15.307Z,17.40
2018-06-20T11:04:27.731Z,17.40
2018-06-20T11:09:40.178Z,17.40
2018-06-20T11:12:16.949Z,17.50
2018-06-20T11:14:49.524Z,17.40
2018-06-20T11:17:22.028Z,17.50
2018-06-20T11:19:54.376Z,17.50
2018-06-20T11:22:26.697Z,17.50
2018-06-20T11:24:59.256Z,17.40
2018-06-20T11:27:31.796Z,17.40
2018-06-20T11:30:04.175Z,17.40
2018-06-20T11:32:36.650Z,17.40
2018-06-20T11:35:09.187Z,17.40
2018-06-20T11:37:41.656Z,17.40
2018-06-20T11:40:14.865Z,17.50
2018-06-20T11:42:47.446Z,17.50
2018-06-20T11:45:19.850Z,17.50
2018-06-20T11:47:52.208Z,17.50
2018-06-20T11:50:24.648Z,17.50
2018-06-20T11:53:06.398Z,17.50
2018-06-20T11:55:40.202Z,17.60
2018-06-20T11:58:17.037Z,17.60
2018-06-20T12:00:53.892Z,17.60
2018-06-20T12:03:30.795Z,17.60
2018-06-20T12:06:07.314Z,17.70
2018-06-20T12:08:44.761Z,17.70
2018-06-20T12:11:21.862Z,17.80
2018-06-20T12:13:58.780Z,18.00
2018-06-20T12:16:33.123Z,18.00
2018-06-20T12:19:09.924Z,18.10
2018-06-20T12:21:46.588Z,18.10
2018-06-20T12:24:23.512Z,18.10
2018-06-20T12:27:00.321Z,18.00
2018-06-20T12:29:37.153Z,18.00
2018-06-20T12:32:13.691Z,17.90
2018-06-20T12:34:50.312Z,17.90
2018-06-20T12:37:27.168Z,17.90
2018-06-20T12:40:03.250Z,17.90
2018-06-20T12:42:39.891Z,17.90
2018-06-20T12:45:15.488Z,17.90
2018-06-20T12:47:52.288Z,18.00
2018-06-20T12:50:29.492Z,18.00
2018-06-20T12:53:02.432Z,18.00
2018-06-20T12:55:34.865Z,18.00
2018-06-20T12:58:07.403Z,18.00
2018-06-20T13:00:47.372Z,18.10
2018-06-20T13:03:19.792Z,18.10
2018-06-20T13:05:52.409Z,18.10
2018-06-20T13:08:25.138Z,18.10
2018-06-20T13:10:57.566Z,18.10
2018-06-20T13:13:29.997Z,18.00
2018-06-20T13:16:02.325Z,18.10
2018-06-20T13:18:35.838Z,18.20
2018-06-20T13:21:08.313Z,18.20
2018-06-20T13:26:11.830Z,18.50
2018-06-20T13:28:45.695Z,18.60
2018-06-20T13:31:22.681Z,18.70
2018-06-20T13:34:00.137Z,18.70
2018-06-20T13:36:37.052Z,19.10
2018-06-20T13:39:16.082Z,19.30
2018-06-20T13:41:52.941Z,19.70
2018-06-20T13:44:27.740Z,20.00
2018-06-20T13:47:04.704Z,20.00
2018-06-20T13:49:37.621Z,19.80
2018-06-20T13:52:10.069Z,19.90
2018-06-20T13:54:42.893Z,20.20
2018-06-20T13:57:15.383Z,20.50
2018-06-20T13:59:47.922Z,20.80
2018-06-20T14:02:20.300Z,20.90
2018-06-20T14:04:52.780Z,21.20
2018-06-20T14:07:25.173Z,21.10
2018-06-20T14:09:57.465Z,20.70
2018-06-20T14:12:30.205Z,20.30
2018-06-20T14:15:02.579Z,20.20
2018-06-20T14:17:37.494Z,20.40
2018-06-20T14:23:30.388Z,21.40
2018-06-20T14:26:02.963Z,22.30
2018-06-20T14:28:37.244Z,22.00
2018-06-20T14:31:28.360Z,22.00
2018-06-20T14:34:16.940Z,22.30
2018-06-20T14:37:05.724Z,22.50
2018-06-20T14:43:08.945Z,21.80
2018-06-20T14:45:50.628Z,22.20
2018-06-20T14:48:23.512Z,22.90
2018-06-20T14:51:05.228Z,23.60
2018-06-20T14:53:42.825Z,24.00
2018-06-20T14:56:19.498Z,24.00
2018-06-20T14:59:28.295Z,23.80
2018-06-20T15:02:00.868Z,23.50
2018-06-20T15:04:33.557Z,23.70
2018-06-20T15:07:12.409Z,24.00
2018-06-20T15:09:45.043Z,24.00
2018-06-20T15:12:17.536Z,23.20
2018-06-20T15:14:49.924Z,23.00
2018-06-20T15:17:29.575Z,23.40
2018-06-20T15:20:02.899Z,23.30
2018-06-20T15:22:39.781Z,23.80
2018-06-20T15:25:12.806Z,24.20
2018-06-20T15:27:49.683Z,24.30
2018-06-20T15:30:54.954Z,25.10
2018-06-20T15:33:31.985Z,25.00
2018-06-20T15:38:18.539Z,25.10
2018-06-20T15:40:51.919Z,24.60
2018-06-20T15:43:25.391Z,25.50
2018-06-20T15:46:05.137Z,25.70
2018-06-20T15:48:40.265Z,26.30
2018-06-20T15:51:14.962Z,26.40
2018-06-20T15:53:47.737Z,25.70
2018-06-20T15:56:20.550Z,25.50
2018-06-20T15:58:53.341Z,25.60
2018-06-20T16:01:26.145Z,25.80
2018-06-20T16:07:39.991Z,25.90
2018-06-20T16:10:17.148Z,26.20
2018-06-20T16:12:49.879Z,26.00
2018-06-20T16:15:22.100Z,25.80
2018-06-20T16:17:54.517Z,25.60
2018-06-20T16:20:31.931Z,25.70
2018-06-20T16:23:09.885Z,26.20
2018-06-20T16:25:47.033Z,25.70
2018-06-20T16:28:25.758Z,25.70
2018-06-20T16:30:58.329Z,25.60
2018-06-20T16:33:30.724Z,25.50
2018-06-20T16:36:02.900Z,25.40
2018-06-20T16:41:56.135Z,25.70
2018-06-20T16:44:28.442Z,26.00
2018-06-20T16:47:02.899Z,25.90
2018-06-20T16:49:43.957Z,25.60
2018-06-20T16:52:23.383Z,26.40
2018-06-20T16:55:01.537Z,25.50
2018-06-20T16:57:36.816Z,25.20
2018-06-20T17:00:11.576Z,25.60
2018-06-20T17:02:51.897Z,25.40
2018-06-20T17:05:29.034Z,26.20
2018-06-20T17:08:02.560Z,26.60
2018-06-20T17:10:35.245Z,26.80
2018-06-20T17:16:36.809Z,26.20
2018-06-20T17:19:20.030Z,25.70
2018-06-20T17:21:57.286Z,25.50
2018-06-20T17:24:43.365Z,25.40
2018-06-20T17:27:33.070Z,25.50
2018-06-20T17:30:06.158Z,25.80
2018-06-20T17:32:39.432Z,26.10
2018-06-20T17:35:12.035Z,26.50
2018-06-20T17:37:45.779Z,26.30
2018-06-20T17:40:18.857Z,26.30
2018-06-20T17:42:52.622Z,26.20
2018-06-20T17:45:26.798Z,26.00
2018-06-20T17:47:59.615Z,26.30
2018-06-20T17:50:32.261Z,26.30
2018-06-20T17:53:04.772Z,26.70
2018-06-20T17:55:37.544Z,26.90
2018-06-20T17:58:11.441Z,27.20
2018-06-20T18:00:52.221Z,27.10
2018-06-20T18:03:28.558Z,26.90
2018-06-20T18:06:07.639Z,26.60
2018-06-20T18:08:46.136Z,26.50
2018-06-20T18:13:26.893Z,26.30
2018-06-20T18:16:03.712Z,26.70
2018-06-20T18:18:36.224Z,26.80
2018-06-20T18:21:09.017Z,27.20
2018-06-20T18:23:42.132Z,27.70
2018-06-20T18:26:16.570Z,27.50
2018-06-20T18:28:50.267Z,27.30
2018-06-20T18:31:22.790Z,25.90
2018-06-20T18:33:55.986Z,25.50
2018-06-20T18:36:29.281Z,25.70
2018-06-20T18:39:03.432Z,26.20
2018-06-20T18:41:35.831Z,26.50
2018-06-20T18:44:09.942Z,26.00
2018-06-20T18:46:42.829Z,26.40
2018-06-20T18:49:17.105Z,26.80
2018-06-20T18:54:22.270Z,27.10
2018-06-20T18:56:55.611Z,26.60
2018-06-20T18:59:33.214Z,26.20
2018-06-20T19:02:10.415Z,25.90
2018-06-20T19:04:47.384Z,25.60
2018-06-20T19:07:24.317Z,25.80
2018-06-20T19:10:28.006Z,26.20
2018-06-20T19:13:04.912Z,26.20
2018-06-20T19:15:48.893Z,26.70
2018-06-20T19:18:22.703Z,26.80
2018-06-20T19:20:55.553Z,27.30
2018-06-20T19:23:29.352Z,27.30
2018-06-20T19:26:05.672Z,27.10
2018-06-20T19:28:40.482Z,27.00
2018-06-20T19:31:14.513Z,27.40
2018-06-20T19:33:47.924Z,27.00
2018-06-20T19:36:20.588Z,26.70
2018-06-20T19:42:14.177Z,26.20
2018-06-20T19:44:49.677Z,26.40
2018-06-20T19:47:23.142Z,26.70
2018-06-20T19:49:55.576Z,26.00
2018-06-20T19:52:27.946Z,26.50
2018-06-20T19:55:00.408Z,26.70
2018-06-20T19:57:33.118Z,26.30
2018-06-20T20:00:05.888Z,25.90
2018-06-20T20:02:45.144Z,25.60
2018-06-20T20:05:21.737Z,26.00
2018-06-20T20:08:04.754Z,26.50
2018-06-20T20:10:54.162Z,26.20
2018-06-20T20:13:55.431Z,26.30
2018-06-20T20:16:49.092Z,25.70
2018-06-20T20:23:07.073Z,25.20
2018-06-20T20:26:08.293Z,25.20
2018-06-20T20:28:47.647Z,25.40
2018-06-20T20:31:37.284Z,25.20
2018-06-20T20:34:19.224Z,25.70
2018-06-20T20:37:06.728Z,25.40
2018-06-20T20:39:43.750Z,25.40
2018-06-20T20:48:26.626Z,26.00
2018-06-20T20:51:15.629Z,25.80
2018-06-20T20:54:00.694Z,26.00
2018-06-20T20:56:42.184Z,25.40
2018-06-20T20:59:40.221Z,24.90
2018-06-20T21:02:18.114Z,24.60
2018-06-20T21:04:57.151Z,24.60
2018-06-20T21:07:38.042Z,24.40
2018-06-20T21:10:12.666Z,24.40
2018-06-20T21:12:46.968Z,24.60
2018-06-20T21:15:20.220Z,24.50
2018-06-20T21:17:53.171Z,24.40
2018-06-20T21:20:25.796Z,23.80
2018-06-20T21:23:02.960Z,23.70
2018-06-20T21:25:36.136Z,23.30
2018-06-20T21:28:12.815Z,23.10
2018-06-20T21:30:45.724Z,23.00
2018-06-20T21:33:19.279Z,22.80
2018-06-20T21:35:56.819Z,22.90
2018-06-20T21:38:29.623Z,22.80
2018-06-20T21:43:50.320Z,22.90
2018-06-20T21:46:22.985Z,23.00
2018-06-20T21:48:56.784Z,22.90
2018-06-20T21:51:29.328Z,22.60
2018-06-20T21:54:04.858Z,22.50
2018-06-20T21:56:37.858Z,22.60
2018-06-20T21:59:10.956Z,22.60
2018-06-20T22:01:44.508Z,22.30
2018-06-20T22:04:20.509Z,21.90
2018-06-20T22:07:08.439Z,21.90
2018-06-20T22:09:53.413Z,21.90
2018-06-20T22:13:25.964Z,21.90
2018-06-20T22:15:58.918Z,21.80
2018-06-20T22:18:38.572Z,21.70
2018-06-20T22:21:16.588Z,21.50
2018-06-20T22:23:49.416Z,21.50
2018-06-20T22:26:23.450Z,21.40
2018-06-20T22:32:18.745Z,21.30
2018-06-20T22:34:52.779Z,21.50
2018-06-20T22:37:27.447Z,21.50
2018-06-20T22:40:07.542Z,21.40
2018-06-20T22:42:41.533Z,21.20
2018-06-20T22:45:14.271Z,21.20
2018-06-20T22:47:47.183Z,21.30
2018-06-20T22:50:20.871Z,21.40
2018-06-20T22:52:53.515Z,21.30
2018-06-20T22:58:56.997Z,21.10
2018-06-20T23:01:30.273Z,20.80
2018-06-20T23:04:02.711Z,20.70
2018-06-20T23:06:35.554Z,20.60
2018-06-20T23:09:10.846Z,20.70
2018-06-20T23:11:47.538Z,20.70
2018-06-20T23:14:19.856Z,20.60
2018-06-20T23:16:53.758Z,20.70
2018-06-20T23:22:02.087Z,20.80
2018-06-20T23:24:34.626Z,20.80
2018-06-20T23:27:07.099Z,20.70
2018-06-20T23:29:39.529Z,20.70
2018-06-20T23:32:11.843Z,20.70
2018-06-20T23:34:44.127Z,20.60
2018-06-20T23:37:16.314Z,20.70
2018-06-20T23:39:48.481Z,20.70
2018-06-20T23:42:20.619Z,20.60
2018-06-20T23:44:53.196Z,20.50
2018-06-20T23:47:25.665Z,20.50
2018-06-20T23:49:57.873Z,20.50
2018-06-20T23:55:50.556Z,20.30
2018-06-20T23:58:22.771Z,20.30
